createdAt,value
2019-03-16T00:02:43.814Z,8.76
2019-03-16T00:05:26.310Z,8.87
2019-03-16T00:08:16.435Z,8.87
2019-03-16T00:11:07.591Z,8.88
2019-03-16T00:13:57.508Z,8.92
2019-03-16T00:16:28.242Z,8.96
2019-03-16T00:19:18.108Z,9.01
2019-03-16T00:22:07.877Z,9.04
2019-03-16T00:24:57.627Z,9.12
2019-03-16T00:27:39.835Z,9.08
2019-03-16T00:30:29.707Z,9.21
2019-03-16T00:33:19.523Z,9.21
2019-03-16T00:36:09.444Z,9.25
2019-03-16T00:44:49.799Z,9.31
2019-03-16T00:47:31.905Z,9.34
2019-03-16T00:50:14.365Z,9.38
2019-03-16T00:53:04.199Z,9.40
2019-03-16T00:55:53.921Z,9.39
2019-03-16T00:59:02.750Z,9.40
2019-03-16T01:01:52.505Z,9.41
2019-03-16T01:04:39.332Z,9.38
2019-03-16T01:07:29.041Z,9.43
2019-03-16T01:10:11.776Z,9.44
2019-03-16T01:13:01.549Z,9.48
2019-03-16T01:15:44.081Z,9.47
2019-03-16T01:18:33.877Z,9.44
2019-03-16T01:21:23.593Z,9.44
2019-03-16T01:24:13.357Z,9.30
2019-03-16T01:26:56.007Z,9.26
2019-03-16T01:29:45.935Z,9.26
2019-03-16T01:32:40.753Z,9.39
2019-03-16T01:35:20.231Z,9.44
2019-03-16T01:38:10.011Z,9.46
2019-03-16T01:40:59.780Z,9.44
2019-03-16T01:43:49.487Z,9.44
2019-03-16T01:46:32.333Z,9.43
2019-03-16T01:49:22.049Z,9.39
2019-03-16T01:52:04.910Z,9.34
2019-03-16T01:54:54.684Z,9.36
2019-03-16T01:57:37.274Z,9.38
2019-03-16T02:00:27.109Z,9.38
2019-03-16T02:03:09.188Z,9.28
2019-03-16T02:05:58.907Z,9.37
2019-03-16T02:08:41.000Z,9.39
2019-03-16T02:11:30.863Z,9.38
2019-03-16T02:14:14.449Z,9.36
2019-03-16T02:17:04.180Z,9.32
2019-03-16T02:19:54.002Z,9.29
2019-03-16T02:22:36.984Z,9.28
2019-03-16T02:25:45.852Z,9.14
2019-03-16T02:31:22.406Z,9.32
2019-03-16T02:34:12.245Z,9.30
2019-03-16T02:37:01.968Z,9.29
2019-03-16T02:39:51.674Z,9.24
2019-03-16T02:42:41.443Z,9.24
2019-03-16T02:45:24.122Z,9.13
2019-03-16T02:48:06.915Z,9.03
2019-03-16T02:56:34.731Z,9.20
2019-03-16T02:59:24.438Z,9.18
2019-03-16T03:02:14.178Z,9.17
2019-03-16T03:04:56.208Z,9.17
2019-03-16T03:07:45.948Z,9.03
2019-03-16T03:10:28.709Z,9.17
2019-03-16T03:13:18.466Z,9.19
2019-03-16T03:16:02.030Z,9.17
2019-03-16T03:18:51.830Z,9.04
2019-03-16T03:21:34.229Z,9.16
2019-03-16T03:24:23.965Z,9.17
2019-03-16T03:27:06.258Z,9.20
2019-03-16T03:29:57.461Z,9.22
2019-03-16T03:32:40.464Z,9.21
2019-03-16T03:35:30.183Z,9.19
2019-03-16T03:38:12.132Z,9.16
2019-03-16T03:41:02.307Z,9.15
2019-03-16T03:43:46.203Z,9.16
2019-03-16T03:46:35.916Z,9.13
2019-03-16T03:49:18.559Z,9.13
2019-03-16T03:52:08.332Z,9.11
2019-03-16T03:54:51.262Z,9.14
2019-03-16T04:00:35.652Z,9.09
2019-03-16T04:03:25.636Z,9.06
2019-03-16T04:06:15.554Z,8.94
2019-03-16T04:09:07.306Z,9.01
2019-03-16T04:11:57.903Z,8.98
2019-03-16T04:14:47.696Z,8.98
2019-03-16T04:17:37.472Z,9.01
2019-03-16T04:20:27.193Z,9.00
2019-03-16T04:23:11.051Z,9.02
2019-03-16T04:25:54.147Z,8.92
2019-03-16T04:28:43.848Z,9.01
2019-03-16T04:31:33.808Z,8.96
2019-03-16T04:34:29.117Z,8.89
2019-03-16T04:37:07.833Z,8.91
2019-03-16T04:43:01.195Z,8.95
2019-03-16T04:45:43.593Z,8.84
2019-03-16T04:48:33.311Z,8.86
2019-03-16T04:51:15.675Z,8.89
2019-03-16T04:54:05.423Z,8.89
2019-03-16T04:56:47.701Z,8.89
2019-03-16T04:59:37.441Z,8.85
2019-03-16T05:02:19.950Z,8.94
2019-03-16T05:07:56.825Z,8.85
2019-03-16T05:10:39.273Z,8.87
2019-03-16T05:13:29.057Z,8.70
2019-03-16T05:16:18.805Z,8.87
2019-03-16T05:19:03.442Z,8.90
2019-03-16T05:21:53.170Z,8.92
2019-03-16T05:24:35.210Z,8.84
2019-03-16T05:27:25.323Z,8.91
2019-03-16T05:30:07.582Z,8.94
2019-03-16T05:32:57.452Z,8.84
2019-03-16T05:35:41.393Z,8.90
2019-03-16T05:38:31.294Z,8.88
2019-03-16T05:41:15.177Z,8.89
2019-03-16T05:44:04.880Z,8.90
2019-03-16T05:46:46.943Z,8.89
2019-03-16T05:49:36.680Z,8.77
2019-03-16T05:52:18.686Z,8.91
2019-03-16T05:55:08.410Z,8.91
2019-03-16T05:57:50.706Z,8.90
2019-03-16T06:03:41.868Z,8.71
2019-03-16T06:06:31.682Z,8.86
2019-03-16T06:09:14.296Z,8.90
2019-03-16T06:12:04.047Z,8.90
2019-03-16T06:14:46.661Z,8.92
2019-03-16T06:17:37.198Z,8.91
2019-03-16T06:20:19.514Z,8.92
2019-03-16T06:23:09.239Z,8.89
2019-03-16T06:25:55.536Z,8.70
2019-03-16T06:28:45.320Z,8.84
2019-03-16T06:31:28.150Z,8.88
2019-03-16T06:34:17.904Z,8.90
2019-03-16T06:37:02.172Z,8.84
2019-03-16T06:39:51.932Z,8.92
2019-03-16T06:42:41.832Z,8.94
2019-03-16T06:45:23.943Z,8.83
2019-03-16T06:48:25.626Z,8.85
2019-03-16T06:51:08.187Z,8.96
2019-03-16T06:57:04.399Z,8.95
2019-03-16T06:59:46.446Z,8.91
2019-03-16T07:02:36.271Z,8.94
2019-03-16T07:05:22.136Z,8.96
2019-03-16T07:08:10.835Z,9.06
2019-03-16T07:10:53.317Z,9.20
2019-03-16T07:13:43.029Z,9.24
2019-03-16T07:16:26.888Z,9.31
2019-03-16T07:22:19.605Z,10.10
2019-03-16T07:25:01.720Z,10.37
2019-03-16T07:27:51.520Z,10.20
2019-03-16T07:30:41.326Z,10.50
2019-03-16T07:36:25.802Z,11.31
2019-03-16T07:39:15.608Z,12.08
2019-03-16T07:42:05.346Z,11.94
2019-03-16T07:45:08.909Z,11.66
2019-03-16T07:47:53.781Z,11.66
2019-03-16T07:50:43.649Z,11.02
2019-03-16T07:53:33.424Z,10.66
2019-03-16T07:56:23.299Z,11.35
2019-03-16T07:59:32.235Z,12.44
2019-03-16T08:02:14.966Z,12.07
2019-03-16T08:05:17.374Z,12.08
2019-03-16T08:07:49.037Z,11.85
2019-03-16T08:13:33.466Z,12.13
2019-03-16T08:16:23.215Z,11.82
2019-03-16T08:19:12.953Z,11.04
2019-03-16T08:22:02.696Z,10.68
2019-03-16T08:24:45.127Z,10.63
2019-03-16T08:30:35.963Z,10.47
2019-03-16T08:33:25.846Z,10.69
2019-03-16T08:36:08.023Z,10.82
2019-03-16T08:39:18.349Z,11.04
2019-03-16T08:42:01.034Z,10.81
2019-03-16T08:44:50.767Z,10.76
2019-03-16T08:47:33.344Z,11.02
2019-03-16T08:50:23.065Z,11.18
2019-03-16T08:53:05.444Z,11.36
2019-03-16T08:55:55.161Z,11.51
2019-03-16T08:58:37.567Z,11.64
2019-03-16T09:04:26.223Z,12.01
2019-03-16T09:07:15.994Z,12.03
2019-03-16T09:10:06.105Z,11.88
2019-03-16T09:13:09.462Z,12.02
2019-03-16T09:18:43.696Z,12.26
2019-03-16T09:21:33.530Z,12.28
2019-03-16T09:24:16.181Z,12.57
2019-03-16T09:27:06.028Z,12.56
2019-03-16T09:35:23.610Z,12.58
2019-03-16T09:38:13.343Z,12.86
2019-03-16T09:40:56.269Z,12.99
2019-03-16T09:43:45.995Z,12.91
2019-03-16T09:46:28.926Z,12.91
2019-03-16T09:49:18.677Z,13.00
2019-03-16T09:51:49.468Z,13.09
2019-03-16T09:54:39.217Z,13.31
2019-03-16T09:57:21.381Z,13.27
2019-03-16T10:00:12.355Z,12.87
2019-03-16T10:02:54.932Z,12.65
2019-03-16T10:05:44.693Z,12.69
2019-03-16T10:08:31.224Z,13.08
2019-03-16T10:11:21.068Z,13.24
2019-03-16T10:14:03.378Z,13.14
2019-03-16T10:16:53.083Z,12.94
2019-03-16T10:19:34.992Z,13.16
2019-03-16T10:22:24.784Z,13.36
2019-03-16T10:25:07.116Z,13.33
2019-03-16T10:30:59.681Z,13.89
2019-03-16T10:33:49.399Z,13.68
2019-03-16T10:36:31.853Z,13.66
2019-03-16T10:39:21.594Z,13.85
2019-03-16T10:42:04.410Z,13.93
2019-03-16T10:44:54.324Z,14.06
2019-03-16T10:47:37.114Z,14.18
2019-03-16T10:50:26.920Z,14.37
2019-03-16T10:53:09.919Z,14.51
2019-03-16T10:55:59.714Z,14.66
2019-03-16T10:58:56.518Z,14.73
2019-03-16T11:01:33.681Z,15.01
2019-03-16T11:04:23.524Z,14.80
2019-03-16T11:07:32.431Z,15.02
2019-03-16T11:10:15.450Z,15.15
2019-03-16T11:13:05.361Z,14.66
2019-03-16T11:15:55.258Z,14.85
2019-03-16T11:18:44.998Z,14.81
2019-03-16T11:21:32.083Z,15.20
2019-03-16T11:24:14.251Z,15.27
2019-03-16T11:30:24.345Z,15.23
2019-03-16T11:33:14.079Z,15.29
2019-03-16T11:36:03.843Z,15.21
2019-03-16T11:44:34.444Z,15.67
2019-03-16T11:47:20.748Z,15.86
2019-03-16T11:50:02.878Z,16.01
2019-03-16T11:55:47.891Z,15.97
2019-03-16T11:58:50.027Z,16.03
2019-03-16T12:01:32.952Z,16.03
2019-03-16T12:07:17.587Z,16.34
2019-03-16T12:10:08.786Z,16.44
2019-03-16T12:12:58.601Z,16.57
2019-03-16T12:15:48.473Z,16.68
2019-03-16T12:18:38.250Z,16.65
2019-03-16T12:21:28.053Z,16.79
2019-03-16T12:24:17.873Z,16.47
2019-03-16T12:27:07.792Z,16.26
2019-03-16T12:29:54.296Z,16.53
2019-03-16T12:32:36.483Z,16.53
2019-03-16T12:35:26.206Z,16.55
2019-03-16T12:38:08.416Z,16.70
2019-03-16T12:44:00.512Z,16.55
2019-03-16T12:49:45.170Z,16.31
2019-03-16T12:52:34.985Z,16.50
2019-03-16T12:55:24.760Z,16.59
2019-03-16T12:58:14.485Z,16.39
2019-03-16T13:00:57.232Z,16.64
2019-03-16T13:06:42.194Z,16.87
2019-03-16T13:15:54.594Z,17.05
2019-03-16T13:18:44.300Z,16.96
2019-03-16T13:21:27.261Z,16.96
2019-03-16T13:27:14.901Z,17.16
2019-03-16T13:29:59.171Z,17.37
2019-03-16T13:32:48.979Z,17.03
2019-03-16T13:35:38.762Z,17.03
2019-03-16T13:38:29.114Z,17.17
2019-03-16T13:41:37.990Z,17.04
2019-03-16T13:44:40.024Z,16.94
2019-03-16T13:47:22.646Z,16.86
2019-03-16T14:03:39.934Z,17.71
2019-03-16T14:06:30.598Z,17.67
2019-03-16T14:09:15.778Z,17.63
2019-03-16T14:12:17.758Z,17.49
2019-03-16T14:15:01.277Z,17.17
2019-03-16T14:17:51.540Z,17.10
2019-03-16T14:20:36.365Z,17.12
2019-03-16T14:23:38.852Z,17.21
2019-03-16T14:26:22.669Z,17.27
2019-03-16T14:29:07.042Z,17.11
2019-03-16T14:31:51.104Z,17.05
2019-03-16T14:37:36.595Z,16.91
2019-03-16T14:40:26.347Z,17.13
2019-03-16T14:43:16.738Z,17.23
2019-03-16T14:46:06.668Z,17.23
2019-03-16T14:48:50.709Z,17.21
2019-03-16T14:51:40.613Z,17.06
2019-03-16T14:54:24.060Z,17.00
2019-03-16T15:00:10.727Z,16.98
2019-03-16T15:02:54.598Z,16.89
2019-03-16T15:05:56.288Z,16.89
2019-03-16T15:08:41.069Z,16.93
2019-03-16T15:14:21.584Z,16.98
2019-03-16T15:17:06.971Z,16.86
2019-03-16T15:19:56.965Z,16.89
2019-03-16T15:22:58.803Z,16.85
2019-03-16T15:25:41.297Z,16.85
2019-03-16T15:31:25.884Z,16.63
2019-03-16T15:34:27.497Z,16.70
2019-03-16T15:37:09.937Z,16.56
2019-03-16T15:39:59.851Z,16.65
2019-03-16T15:42:49.653Z,16.66
2019-03-16T15:45:51.739Z,16.53
2019-03-16T15:48:34.599Z,16.67
2019-03-16T15:51:24.993Z,16.71
2019-03-16T15:59:56.758Z,16.64
2019-03-16T16:02:42.822Z,16.69
2019-03-16T16:05:26.797Z,16.66
2019-03-16T16:08:09.945Z,16.65
2019-03-16T16:17:00.349Z,16.46
2019-03-16T16:19:50.034Z,16.44
2019-03-16T16:22:32.248Z,16.44
2019-03-16T16:25:21.977Z,16.45
2019-03-16T16:28:05.358Z,16.43
2019-03-16T16:30:55.188Z,16.38
2019-03-16T16:33:38.054Z,16.34
2019-03-16T16:36:27.797Z,16.15
2019-03-16T16:39:10.239Z,16.16
2019-03-16T16:42:00.252Z,16.10
2019-03-16T16:48:04.494Z,16.00
2019-03-16T16:50:54.684Z,15.97
2019-03-16T16:53:38.583Z,15.92
2019-03-16T16:56:28.347Z,15.84
2019-03-16T16:59:12.160Z,15.74
2019-03-16T17:02:01.939Z,15.69
2019-03-16T17:07:42.286Z,15.56
2019-03-16T17:13:33.151Z,15.45
2019-03-16T17:16:23.064Z,15.35
2019-03-16T17:19:05.672Z,15.30
2019-03-16T17:21:55.790Z,15.16
2019-03-16T17:24:45.516Z,15.15
2019-03-16T17:27:28.152Z,15.13
2019-03-16T17:30:18.860Z,15.12
2019-03-16T17:33:01.218Z,15.04
2019-03-16T17:36:02.660Z,14.94
2019-03-16T17:38:45.772Z,14.88
2019-03-16T17:41:35.768Z,14.83
2019-03-16T17:44:25.628Z,14.83
2019-03-16T17:47:27.016Z,14.73
2019-03-16T17:50:09.787Z,14.66
2019-03-16T17:53:11.018Z,14.60
2019-03-16T17:55:53.516Z,14.46
2019-03-16T18:04:39.006Z,14.07
2019-03-16T18:07:29.578Z,14.11
2019-03-16T18:10:19.288Z,14.06
2019-03-16T18:13:02.191Z,14.00
2019-03-16T18:15:52.056Z,14.03
2019-03-16T18:18:54.029Z,14.02
2019-03-16T18:21:36.906Z,13.94
2019-03-16T18:27:21.478Z,14.00
2019-03-16T18:30:13.626Z,13.98
2019-03-16T18:33:03.603Z,13.98
2019-03-16T18:35:53.368Z,13.80
2019-03-16T18:38:43.214Z,13.93
2019-03-16T18:41:32.995Z,13.92
2019-03-16T18:44:22.850Z,13.91
2019-03-16T18:50:10.075Z,13.80
2019-03-16T18:53:18.892Z,13.73
2019-03-16T18:56:01.937Z,13.67
2019-03-16T19:01:47.443Z,13.43
2019-03-16T19:04:37.325Z,13.49
2019-03-16T19:07:27.311Z,13.41
2019-03-16T19:10:17.133Z,13.38
2019-03-16T19:13:18.751Z,13.20
2019-03-16T19:16:01.429Z,13.25
2019-03-16T19:19:02.479Z,13.08
2019-03-16T19:21:44.755Z,13.06
2019-03-16T19:24:34.586Z,12.92
2019-03-16T19:27:24.502Z,12.81
2019-03-16T19:33:29.659Z,12.58
2019-03-16T19:36:13.095Z,12.54
2019-03-16T19:39:02.973Z,12.37
2019-03-16T19:41:53.033Z,12.35
2019-03-16T19:44:42.828Z,12.42
2019-03-16T19:47:32.659Z,12.42
2019-03-16T19:50:22.614Z,12.27
2019-03-16T19:53:24.391Z,12.36
2019-03-16T19:56:08.658Z,12.33
2019-03-16T20:02:13.041Z,12.45
2019-03-16T20:07:57.749Z,12.57
2019-03-16T20:16:14.807Z,12.67
2019-03-16T20:21:59.670Z,12.78
2019-03-16T20:27:44.052Z,12.79
2019-03-16T20:33:49.413Z,12.79
2019-03-16T20:36:31.515Z,12.77
2019-03-16T20:39:32.544Z,12.61
2019-03-16T20:42:15.122Z,12.78
2019-03-16T20:48:21.046Z,12.74
2019-03-16T20:51:10.779Z,12.69
2019-03-16T20:53:53.186Z,12.66
2019-03-16T20:59:37.717Z,12.63
2019-03-16T21:02:39.474Z,12.64
2019-03-16T21:05:21.992Z,12.62
2019-03-16T21:08:11.724Z,12.61
2019-03-16T21:14:16.662Z,12.49
2019-03-16T21:20:10.704Z,12.41
2019-03-16T21:22:53.438Z,12.39
2019-03-16T21:25:43.254Z,12.35
2019-03-16T21:28:33.042Z,12.37
2019-03-16T21:31:22.888Z,12.33
2019-03-16T21:34:24.992Z,12.29
2019-03-16T21:37:07.195Z,12.25
2019-03-16T21:39:56.924Z,12.16
2019-03-16T21:42:58.936Z,12.09
2019-03-16T21:45:41.085Z,12.05
2019-03-16T21:48:30.872Z,12.01
2019-03-16T21:51:20.642Z,11.97
2019-03-16T21:54:10.452Z,11.92
2019-03-16T21:57:00.295Z,11.89
2019-03-16T22:00:01.859Z,11.86
2019-03-16T22:02:44.709Z,11.81
2019-03-16T22:08:30.881Z,11.67
2019-03-16T22:14:37.092Z,11.62
2019-03-16T22:23:24.320Z,11.54
2019-03-16T22:26:25.919Z,11.48
2019-03-16T22:29:08.516Z,11.48
2019-03-16T22:31:58.312Z,11.46
2019-03-16T22:34:41.176Z,11.48
2019-03-16T22:40:24.988Z,11.26
2019-03-16T22:43:15.691Z,11.37
2019-03-16T22:45:58.994Z,11.36
2019-03-16T22:48:42.287Z,11.35
2019-03-16T22:51:31.987Z,11.36
2019-03-16T22:54:19.424Z,11.26
2019-03-16T22:57:01.884Z,11.27
2019-03-16T23:03:20.875Z,11.07
2019-03-16T23:06:03.191Z,11.00
2019-03-16T23:09:04.881Z,10.90
2019-03-16T23:11:48.283Z,10.77
2019-03-16T23:14:38.037Z,10.74
2019-03-16T23:17:20.705Z,10.67
2019-03-16T23:23:06.951Z,10.60
2019-03-16T23:25:50.469Z,10.53
2019-03-16T23:28:51.931Z,10.47
2019-03-16T23:31:35.024Z,10.34
2019-03-16T23:37:40.141Z,10.09
2019-03-16T23:43:32.327Z,10.10
2019-03-16T23:46:33.920Z,10.08
2019-03-16T23:49:16.563Z,10.13
2019-03-16T23:55:01.182Z,10.23
